• Join FlightAware (Why Join?)
  • Login
  • US Flag 
10:52PM EDT


 

Airport Tracker/Info


-or-


 

Live Flight TrackerFlight Track Log ✈ UAL5848 ✈ 12-Apr-2013 ✈ CYOW - KORD

Flight Track Log - Related Links

Times and Time Zones

All times are in EDT time to prevent confusion due to time zone crossing. See the UAL5848 flight status page for this flight to view local times or setup timezone preferences in your user account.

Time Position Orientation Groundspeed Altitude Reporting Facility
EDT Latitude Longitude Course Direction KTS MPH feet Rate Location/Type
01:12PM 45.3333 -75.5833 248° West 150 173 2,400  Level Toronto Center
01:13PM 45.3833 -75.5667 13° North 240 276 4,000 1,920 Climbing Toronto Center
01:14PM 45.3833 -75.6667 270° West 250 288 6,300 2,220 Climbing Toronto Center
01:15PM 45.3500 -75.7667 245° Southwest 240 276 8,500 1,980 Climbing Toronto Center
01:16PM 45.3333 -75.8333 250° West 250 288 10,300 1,500 Climbing Toronto Center
01:17PM 45.2517 -76.5531 248° West  Level FlightAware Approximate
01:17PM 45.3167 -75.9500 259° West 280 322 11,600  Level Toronto Center
01:18PM 45.3167 -76.0833 270° West 300 345 12,600 1,020 Climbing Toronto Center
01:19PM 45.3000 -76.2167 260° West 330 380 13,700 1,140 Climbing Toronto Center
01:20PM 45.2833 -76.3333 259° West 330 380 14,900 1,080 Climbing Toronto Center
01:21PM 45.2667 -76.4500 259° West 340 391 15,900 1,020 Climbing Toronto Center
01:22PM 45.2500 -76.6000 261° West 340 391 17,000 960 Climbing Toronto Center
01:23PM 45.2500 -76.7500 270° West 350 403 17,900 900 Climbing Toronto Center
01:24PM 45.2333 -76.8833 260° West 360 414 18,800 900 Climbing Toronto Center
01:25PM 45.2000 -77.0333 253° West 360 414 19,800 1,080 Climbing Toronto Center
01:26PM 45.1667 -77.1667 251° West 370 426 21,000 1,200 Climbing Toronto Center
01:27PM 45.1333 -77.3000 251° West 360 414 22,200 1,200 Climbing Toronto Center
01:28PM 45.1167 -77.4167 259° West 360 414 23,400 1,200 Climbing Toronto Center
01:29PM 45.0833 -77.5500 251° West 360 414 24,600 1,200 Climbing Toronto Center
01:30PM 45.0333 -77.6667 239° Southwest 350 403 25,800 1,140 Climbing Toronto Center
01:31PM 45.0000 -77.8167 253° West 350 403 26,900 900 Climbing Toronto Center
01:32PM 44.9667 -77.9333 248° West 340 391 27,700 780 Climbing Toronto Center
01:33PM 44.9333 -78.0833 253° West 350 403 28,500 780 Climbing Toronto Center
01:34PM 44.9000 -78.2000 248° West 350 403 29,300 720 Climbing Toronto Center
01:35PM 44.8667 -78.3333 251° West 350 403 30,000 900 Climbing Toronto Center
01:36PM 44.8500 -78.4833 261° West 360 414 31,100 1,140 Climbing Toronto Center
01:37PM 44.8167 -78.6000 248° West 360 414 32,300 1,200 Climbing Toronto Center
01:38PM 44.7833 -78.7167 248° West 350 403 33,600 1,260 Climbing Toronto Center
01:39PM 44.7500 -78.8333 248° West 330 380 34,900 1,020 Climbing Toronto Center
01:40PM 44.7000 -78.9500 239° Southwest 320 368 35,700 540 Climbing Toronto Center
01:41PM 44.6667 -79.0667 248° West 330 380 36,000 120 Climbing Toronto Center
01:42PM 44.6167 -79.1833 239° Southwest 340 391 36,000  Level Toronto Center
01:44PM 44.5167 -79.4500 242° Southwest 370 426 36,000  Level Toronto Center
01:45PM 44.4833 -79.5833 251° West 380 437 36,000  Level Toronto Center
01:46PM 44.4167 -79.7333 238° Southwest 390 449 36,000  Level Toronto Center
01:47PM 44.3833 -79.8500 248° West 390 449 36,000  Level Toronto Center
01:48PM 44.3167 -79.9833 235° Southwest 390 449 36,000  Level Toronto Center
01:49PM 44.2667 -80.1167 242° Southwest 390 449 36,000  Level Toronto Center
01:50PM 44.2333 -80.2333 248° West 400 460 36,000  Level Toronto Center
01:51PM 44.1667 -80.3833 238° Southwest 400 460 36,000  Level Toronto Center
01:52PM 44.1167 -80.5167 242° Southwest 390 449 36,000  Level Toronto Center
01:53PM 44.0667 -80.6500 242° Southwest 390 449 36,000  Level Toronto Center
01:54PM 44.0167 -80.8000 245° Southwest 400 460 36,000  Level Toronto Center
01:55PM 43.9500 -80.9333 235° Southwest 410 472 36,000  Level Toronto Center
01:56PM 43.9000 -81.0667 243° Southwest 400 460 36,000  Level Toronto Center
01:57PM 43.8500 -81.2000 243° Southwest 390 449 36,000  Level Toronto Center
01:58PM 43.8000 -81.3167 239° Southwest 390 449 36,000  Level Toronto Center
01:59PM 43.7500 -81.4500 243° Southwest 400 460 36,000  Level Toronto Center
02:00PM 43.7000 -81.6000 245° Southwest 400 460 36,000  Level Toronto Center
02:01PM 43.6500 -81.7333 243° Southwest 400 460 36,000  Level Toronto Center
02:02PM 43.6000 -81.8667 243° Southwest 400 460 36,000  Level Toronto Center
02:03PM 43.5333 -82.0000 235° Southwest 390 449 36,000  Level Toronto Center
02:04PM 43.4833 -82.1167 239° Southwest 390 449 36,000  Level Toronto Center
02:04PM 43.4742 -82.1908 260° West 398 458 36,000  Level Cleveland Center
02:05PM 43.4331 -82.3128 245° Southwest 398 458 36,000  Level Cleveland Center
02:06PM 43.4056 -82.4578 255° West 392 451 36,000  Level Cleveland Center
02:07PM 43.3761 -82.6053 255° West 392 451 36,000  Level Cleveland Center
02:08PM 43.3333 -82.7000 238° Southwest 400 460 36,000  Level Toronto Center
02:08PM 43.3486 -82.7500 293° West 399 459 36,000  Level Cleveland Center
02:09PM 43.3228 -82.8947 256° West 393 452 36,000  Level Cleveland Center
02:10PM 43.2928 -83.0389 254° West 393 452 36,000 -300 Level Cleveland Center
02:11PM 43.2667 -83.1833 256° West 393 452 35,500 -840 Descending Cleveland Center
02:12PM 43.2364 -83.3247 254° West 393 452 34,400 -1,080 Descending Cleveland Center
02:13PM 43.2078 -83.4714 255° West 393 452 33,400 -1,020 Descending Cleveland Center
02:14PM 43.1789 -83.6153 255° West 393 452 32,400 -720 Descending Cleveland Center
02:15PM 43.1500 -83.7647 255° West 393 452 32,000 -240 Descending Cleveland Center
02:16PM 43.1189 -83.9083 254° West 393 452 32,000  Level Cleveland Center
02:17PM 43.0894 -84.0544 255° West 393 452 32,000  Level Cleveland Center
02:18PM 43.0600 -84.2036 255° West 393 452 32,000  Level Cleveland Center
02:20PM 43.0250 -84.3803 255° West 399 459 32,000  Level Chicago Center
02:21PM 42.9942 -84.5239 254° West 395 455 32,000  Level Chicago Center
02:22PM 42.9647 -84.6669 254° West 392 451 32,000  Level Chicago Center
02:23PM 42.9347 -84.8119 254° West 396 456 32,000  Level Chicago Center
02:24PM 42.9039 -84.9558 254° West 397 457 32,000  Level Chicago Center
02:25PM 42.8728 -85.0992 254° West 394 453 32,000  Level Chicago Center
02:26PM 42.8361 -85.2717 254° West 394 453 32,000 -60 Level Chicago Center
02:27PM 42.8053 -85.4122 253° West 389 448 31,900 -1,020 Descending Chicago Center
02:28PM 42.7764 -85.5536 254° West 388 447 30,000 -1,980 Descending Chicago Center
02:29PM 42.7500 -85.6992 256° West 392 451 27,900 -2,040 Descending Chicago Center
02:30PM 42.7236 -85.8497 257° West 404 465 25,900 -2,280 Descending Chicago Center
02:31PM 42.6950 -86.0000 256° West 408 470 23,200 -2,580 Descending Chicago Center
02:32PM 42.6697 -86.1411 256° West 388 447 20,600 -1,560 Descending Chicago Center
02:33PM 42.6447 -86.2778 256° West 375 432 20,000 -960 Descending Chicago Center
02:34PM 42.6128 -86.4419 255° West 374 430 18,700 -1,680 Descending Chicago Center
02:35PM 42.5881 -86.5742 256° West 365 420 16,600 -2,040 Descending Chicago Center
02:36PM 42.5639 -86.7039 256° West 356 410 14,600 -1,980 Descending Chicago Center
02:37PM 42.5342 -86.8289 252° West 353 406 12,600 -1,800 Descending Chicago Center
02:38PM 42.5019 -86.9467 250° West 341 392 11,000 -1,260 Descending Chicago Center
02:39PM 42.4678 -87.0583 248° West 325 374 10,000 -960 Descending Chicago Center
02:40PM 42.4386 -87.1700 251° West 264 304 9,100 -1,260 Descending Chicago Center
02:41PM 42.3744 -87.2044 202° Southwest 259 298 7,400 -1,380 Descending Chicago Center
02:42PM 42.2983 -87.2264 192° South 268 308 6,300 -780 Descending Chicago Center
02:43PM 42.2286 -87.2450 191° South 258 297 5,900 -540 Descending Chicago Center
02:44PM 42.1589 -87.2656 192° South 257 296 5,200 -840 Descending Chicago Center
02:45PM 42.0947 -87.2992 201° Southwest 251 289 4,200 -600 Descending Chicago Center
02:46PM 42.0236 -87.3444 205° Southwest 242 278 4,000 -120 Descending Chicago Center
02:48PM 41.9992 -87.4233 247° West 232 267 4,000 -60 Level Chicago Center
02:49PM 42.0022 -87.5133 273° West 237 273 3,900 -60 Descending Chicago Center
02:50PM 42.0028 -87.6011 271° West 237 273 3,900 -240 Level Chicago Center
02:51PM 42.0000 -87.7167 268° West 222 255 3,500 -660 Descending Chicago TRACON
02:52PM 42.0000 -87.7667 270° West 183 211 2,600 -900 Descending Chicago TRACON
02:53PM 42.0000 -87.8167 270° West 125 144 1,900 -720 Descending Chicago TRACON
02:54PM 42.0000 -87.8667 270° West 122 140 1,200 -660 Descending Chicago TRACON
02:56PM 41.9667 -87.9000 206° Southwest  Level FlightAware Approximate